sensor_id;sensor_type;location;lat;lon;timestamp;P1;durP1;ratioP1;P2;durP2;ratioP2
47089;SDS011;32840;52.516;13.294;2023-05-07T00:00:03;20.35;;;13.57;;
47089;SDS011;32840;52.516;13.294;2023-05-07T00:02:52;21.15;;;13.82;;
47089;SDS011;32840;52.516;13.294;2023-05-07T00:05:36;19.33;;;13.27;;
47089;SDS011;32840;52.516;13.294;2023-05-07T00:08:22;17.50;;;13.20;;
47089;SDS011;32840;52.516;13.294;2023-05-07T00:11:06;17.00;;;13.07;;
47089;SDS011;32840;52.516;13.294;2023-05-07T00:13:51;19.30;;;13.30;;
47089;SDS011;32840;52.516;13.294;2023-05-07T00:16:36;20.70;;;12.85;;
47089;SDS011;32840;52.516;13.294;2023-05-07T00:19:21;17.05;;;12.93;;
47089;SDS011;32840;52.516;13.294;2023-05-07T00:22:08;15.05;;;12.02;;
47089;SDS011;32840;52.516;13.294;2023-05-07T00:24:53;14.80;;;11.98;;
47089;SDS011;32840;52.516;13.294;2023-05-07T00:27:38;16.15;;;12.32;;
47089;SDS011;32840;52.516;13.294;2023-05-07T00:30:23;18.08;;;11.73;;
47089;SDS011;32840;52.516;13.294;2023-05-07T00:33:08;23.50;;;12.02;;
47089;SDS011;32840;52.516;13.294;2023-05-07T00:35:52;16.40;;;12.50;;
47089;SDS011;32840;52.516;13.294;2023-05-07T00:38:38;15.15;;;11.57;;
47089;SDS011;32840;52.516;13.294;2023-05-07T00:41:23;16.23;;;12.40;;
47089;SDS011;32840;52.516;13.294;2023-05-07T00:44:09;17.20;;;12.35;;
47089;SDS011;32840;52.516;13.294;2023-05-07T00:46:54;13.07;;;10.02;;
47089;SDS011;32840;52.516;13.294;2023-05-07T00:49:43;14.93;;;11.48;;
47089;SDS011;32840;52.516;13.294;2023-05-07T00:52:28;15.60;;;10.68;;
47089;SDS011;32840;52.516;13.294;2023-05-07T00:55:14;14.30;;;11.85;;
47089;SDS011;32840;52.516;13.294;2023-05-07T00:57:58;13.00;;;10.57;;
47089;SDS011;32840;52.516;13.294;2023-05-07T01:00:43;15.35;;;11.07;;
47089;SDS011;32840;52.516;13.294;2023-05-07T01:03:28;13.77;;;10.68;;
47089;SDS011;32840;52.516;13.294;2023-05-07T01:06:14;13.82;;;10.38;;
47089;SDS011;32840;52.516;13.294;2023-05-07T01:09:01;14.40;;;10.82;;
47089;SDS011;32840;52.516;13.294;2023-05-07T01:11:49;15.45;;;11.38;;
47089;SDS011;32840;52.516;13.294;2023-05-07T01:14:35;16.33;;;10.73;;
47089;SDS011;32840;52.516;13.294;2023-05-07T01:17:20;16.52;;;11.45;;
47089;SDS011;32840;52.516;13.294;2023-05-07T01:20:05;15.30;;;11.63;;
47089;SDS011;32840;52.516;13.294;2023-05-07T01:22:51;15.55;;;11.35;;
47089;SDS011;32840;52.516;13.294;2023-05-07T01:25:36;14.90;;;10.20;;
47089;SDS011;32840;52.516;13.294;2023-05-07T01:28:22;17.40;;;10.98;;
47089;SDS011;32840;52.516;13.294;2023-05-07T01:31:06;11.13;;;9.52;;
47089;SDS011;32840;52.516;13.294;2023-05-07T01:33:53;14.65;;;9.80;;
47089;SDS011;32840;52.516;13.294;2023-05-07T01:36:38;13.70;;;10.15;;
47089;SDS011;32840;52.516;13.294;2023-05-07T01:39:25;12.27;;;10.43;;
47089;SDS011;32840;52.516;13.294;2023-05-07T01:42:13;15.38;;;10.32;;
47089;SDS011;32840;52.516;13.294;2023-05-07T01:44:58;13.65;;;10.52;;
47089;SDS011;32840;52.516;13.294;2023-05-07T01:47:43;17.70;;;11.63;;
47089;SDS011;32840;52.516;13.294;2023-05-07T01:50:29;14.40;;;10.80;;
47089;SDS011;32840;52.516;13.294;2023-05-07T01:53:15;11.52;;;9.52;;
47089;SDS011;32840;52.516;13.294;2023-05-07T01:56:00;14.98;;;9.45;;
47089;SDS011;32840;52.516;13.294;2023-05-07T01:58:45;13.57;;;10.38;;
47089;SDS011;32840;52.516;13.294;2023-05-07T02:01:31;11.65;;;9.35;;
47089;SDS011;32840;52.516;13.294;2023-05-07T02:04:16;11.50;;;9.77;;
47089;SDS011;32840;52.516;13.294;2023-05-07T02:07:00;16.65;;;9.52;;
47089;SDS011;32840;52.516;13.294;2023-05-07T02:09:45;13.50;;;10.13;;
47089;SDS011;32840;52.516;13.294;2023-05-07T02:12:30;12.60;;;10.35;;
47089;SDS011;32840;52.516;13.294;2023-05-07T02:15:15;12.20;;;10.10;;
47089;SDS011;32840;52.516;13.294;2023-05-07T02:18:04;12.38;;;10.60;;
47089;SDS011;32840;52.516;13.294;2023-05-07T02:20:50;14.77;;;11.57;;
47089;SDS011;32840;52.516;13.294;2023-05-07T02:23:35;16.95;;;11.70;;
47089;SDS011;32840;52.516;13.294;2023-05-07T02:26:20;15.70;;;11.98;;
47089;SDS011;32840;52.516;13.294;2023-05-07T02:29:05;15.70;;;11.73;;
47089;SDS011;32840;52.516;13.294;2023-05-07T02:31:50;17.42;;;12.20;;
47089;SDS011;32840;52.516;13.294;2023-05-07T02:34:36;15.82;;;11.35;;
47089;SDS011;32840;52.516;13.294;2023-05-07T02:37:22;17.23;;;12.05;;
47089;SDS011;32840;52.516;13.294;2023-05-07T02:40:06;16.30;;;12.32;;
47089;SDS011;32840;52.516;13.294;2023-05-07T02:42:52;13.85;;;11.23;;
47089;SDS011;32840;52.516;13.294;2023-05-07T02:45:37;15.10;;;11.57;;
47089;SDS011;32840;52.516;13.294;2023-05-07T02:48:22;14.43;;;11.20;;
47089;SDS011;32840;52.516;13.294;2023-05-07T02:51:07;14.80;;;10.85;;
47089;SDS011;32840;52.516;13.294;2023-05-07T02:53:51;15.82;;;11.05;;
47089;SDS011;32840;52.516;13.294;2023-05-07T02:56:36;22.02;;;11.77;;
47089;SDS011;32840;52.516;13.294;2023-05-07T02:59:21;15.10;;;10.45;;
47089;SDS011;32840;52.516;13.294;2023-05-07T03:02:06;18.67;;;11.50;;
47089;SDS011;32840;52.516;13.294;2023-05-07T03:04:51;16.65;;;10.90;;
47089;SDS011;32840;52.516;13.294;2023-05-07T03:07:36;16.42;;;10.38;;
47089;SDS011;32840;52.516;13.294;2023-05-07T03:10:21;15.82;;;11.10;;
47089;SDS011;32840;52.516;13.294;2023-05-07T03:13:05;21.60;;;11.13;;
47089;SDS011;32840;52.516;13.294;2023-05-07T03:15:50;17.55;;;11.25;;
47089;SDS011;32840;52.516;13.294;2023-05-07T03:18:35;13.02;;;10.05;;
47089;SDS011;32840;52.516;13.294;2023-05-07T03:21:20;12.32;;;10.02;;
47089;SDS011;32840;52.516;13.294;2023-05-07T03:24:05;14.82;;;10.18;;
47089;SDS011;32840;52.516;13.294;2023-05-07T03:26:50;12.50;;;10.15;;
47089;SDS011;32840;52.516;13.294;2023-05-07T03:29:35;13.25;;;9.02;;
47089;SDS011;32840;52.516;13.294;2023-05-07T03:32:20;13.27;;;9.40;;
47089;SDS011;32840;52.516;13.294;2023-05-07T03:35:05;12.63;;;9.18;;
47089;SDS011;32840;52.516;13.294;2023-05-07T03:37:50;12.93;;;9.43;;
47089;SDS011;32840;52.516;13.294;2023-05-07T03:40:35;13.95;;;10.20;;
47089;SDS011;32840;52.516;13.294;2023-05-07T03:43:20;12.05;;;10.00;;
47089;SDS011;32840;52.516;13.294;2023-05-07T03:46:05;11.93;;;9.25;;
47089;SDS011;32840;52.516;13.294;2023-05-07T03:48:50;12.57;;;9.38;;
47089;SDS011;32840;52.516;13.294;2023-05-07T03:51:35;13.48;;;10.15;;
47089;SDS011;32840;52.516;13.294;2023-05-07T03:54:20;13.30;;;9.65;;
47089;SDS011;32840;52.516;13.294;2023-05-07T03:57:05;12.27;;;9.40;;
47089;SDS011;32840;52.516;13.294;2023-05-07T03:59:50;13.07;;;9.27;;
47089;SDS011;32840;52.516;13.294;2023-05-07T04:02:34;13.57;;;9.70;;
47089;SDS011;32840;52.516;13.294;2023-05-07T04:05:19;13.35;;;10.18;;
47089;SDS011;32840;52.516;13.294;2023-05-07T04:08:04;13.63;;;9.75;;
47089;SDS011;32840;52.516;13.294;2023-05-07T04:10:54;13.32;;;10.73;;
47089;SDS011;32840;52.516;13.294;2023-05-07T04:13:41;13.60;;;9.85;;
47089;SDS011;32840;52.516;13.294;2023-05-07T04:16:26;14.18;;;10.02;;
47089;SDS011;32840;52.516;13.294;2023-05-07T04:19:11;13.18;;;9.90;;
47089;SDS011;32840;52.516;13.294;2023-05-07T04:21:56;14.90;;;11.55;;
47089;SDS011;32840;52.516;13.294;2023-05-07T04:24:41;11.80;;;10.05;;
47089;SDS011;32840;52.516;13.294;2023-05-07T04:27:26;13.35;;;10.05;;
47089;SDS011;32840;52.516;13.294;2023-05-07T04:30:12;13.73;;;9.57;;
47089;SDS011;32840;52.516;13.294;2023-05-07T04:32:57;13.40;;;10.32;;
47089;SDS011;32840;52.516;13.294;2023-05-07T04:35:42;12.13;;;9.38;;
47089;SDS011;32840;52.516;13.294;2023-05-07T04:38:27;12.63;;;9.43;;
47089;SDS011;32840;52.516;13.294;2023-05-07T04:41:15;14.57;;;9.80;;
47089;SDS011;32840;52.516;13.294;2023-05-07T04:44:00;13.30;;;9.00;;
47089;SDS011;32840;52.516;13.294;2023-05-07T04:46:48;12.70;;;8.30;;
47089;SDS011;32840;52.516;13.294;2023-05-07T04:49:33;11.57;;;8.85;;
47089;SDS011;32840;52.516;13.294;2023-05-07T04:52:18;11.07;;;7.95;;
47089;SDS011;32840;52.516;13.294;2023-05-07T04:55:03;10.82;;;8.75;;
47089;SDS011;32840;52.516;13.294;2023-05-07T04:57:48;10.05;;;7.80;;
47089;SDS011;32840;52.516;13.294;2023-05-07T05:00:34;12.68;;;8.25;;
47089;SDS011;32840;52.516;13.294;2023-05-07T05:03:19;11.32;;;8.13;;
47089;SDS011;32840;52.516;13.294;2023-05-07T05:06:04;10.50;;;7.15;;
47089;SDS011;32840;52.516;13.294;2023-05-07T05:08:49;11.90;;;7.20;;
47089;SDS011;32840;52.516;13.294;2023-05-07T05:11:34;11.00;;;7.65;;
47089;SDS011;32840;52.516;13.294;2023-05-07T05:14:19;10.35;;;6.55;;
47089;SDS011;32840;52.516;13.294;2023-05-07T05:17:04;9.38;;;6.88;;
47089;SDS011;32840;52.516;13.294;2023-05-07T05:19:49;10.02;;;7.53;;
47089;SDS011;32840;52.516;13.294;2023-05-07T05:22:34;10.48;;;7.20;;
47089;SDS011;32840;52.516;13.294;2023-05-07T05:25:19;9.95;;;6.95;;
47089;SDS011;32840;52.516;13.294;2023-05-07T05:28:04;11.95;;;7.45;;
47089;SDS011;32840;52.516;13.294;2023-05-07T05:30:49;12.35;;;7.32;;
47089;SDS011;32840;52.516;13.294;2023-05-07T05:33:34;9.60;;;6.95;;
47089;SDS011;32840;52.516;13.294;2023-05-07T05:36:19;10.23;;;6.30;;
47089;SDS011;32840;52.516;13.294;2023-05-07T05:39:04;8.20;;;6.72;;
47089;SDS011;32840;52.516;13.294;2023-05-07T05:41:49;8.88;;;6.55;;
47089;SDS011;32840;52.516;13.294;2023-05-07T05:44:34;10.38;;;6.82;;
47089;SDS011;32840;52.516;13.294;2023-05-07T05:47:18;8.52;;;6.90;;
47089;SDS011;32840;52.516;13.294;2023-05-07T05:50:04;9.35;;;6.68;;
47089;SDS011;32840;52.516;13.294;2023-05-07T05:52:50;9.25;;;7.50;;
47089;SDS011;32840;52.516;13.294;2023-05-07T05:55:35;10.65;;;6.78;;
47089;SDS011;32840;52.516;13.294;2023-05-07T05:58:20;9.77;;;7.10;;
47089;SDS011;32840;52.516;13.294;2023-05-07T06:01:05;9.82;;;6.80;;
47089;SDS011;32840;52.516;13.294;2023-05-07T06:03:49;9.55;;;6.70;;
47089;SDS011;32840;52.516;13.294;2023-05-07T06:06:34;9.98;;;6.70;;
47089;SDS011;32840;52.516;13.294;2023-05-07T06:09:19;8.48;;;6.22;;
47089;SDS011;32840;52.516;13.294;2023-05-07T06:12:04;10.27;;;6.78;;
47089;SDS011;32840;52.516;13.294;2023-05-07T06:14:49;10.70;;;7.07;;
47089;SDS011;32840;52.516;13.294;2023-05-07T06:17:34;9.80;;;7.47;;
47089;SDS011;32840;52.516;13.294;2023-05-07T06:20:19;8.80;;;6.78;;
47089;SDS011;32840;52.516;13.294;2023-05-07T06:23:04;9.43;;;7.30;;
47089;SDS011;32840;52.516;13.294;2023-05-07T06:25:49;10.93;;;6.82;;
47089;SDS011;32840;52.516;13.294;2023-05-07T06:28:34;10.48;;;7.63;;
47089;SDS011;32840;52.516;13.294;2023-05-07T06:31:21;9.73;;;7.63;;
47089;SDS011;32840;52.516;13.294;2023-05-07T06:34:07;10.63;;;7.75;;
47089;SDS011;32840;52.516;13.294;2023-05-07T06:36:51;11.40;;;7.75;;
47089;SDS011;32840;52.516;13.294;2023-05-07T06:39:36;10.00;;;7.22;;
47089;SDS011;32840;52.516;13.294;2023-05-07T06:42:21;11.77;;;8.27;;
47089;SDS011;32840;52.516;13.294;2023-05-07T06:45:06;10.30;;;7.53;;
47089;SDS011;32840;52.516;13.294;2023-05-07T06:47:52;11.27;;;7.45;;
47089;SDS011;32840;52.516;13.294;2023-05-07T06:50:37;23.65;;;8.13;;
47089;SDS011;32840;52.516;13.294;2023-05-07T06:53:23;13.32;;;7.72;;
47089;SDS011;32840;52.516;13.294;2023-05-07T06:56:08;10.05;;;7.03;;
47089;SDS011;32840;52.516;13.294;2023-05-07T06:58:53;9.07;;;7.50;;
47089;SDS011;32840;52.516;13.294;2023-05-07T07:01:38;8.77;;;7.03;;
47089;SDS011;32840;52.516;13.294;2023-05-07T07:04:23;9.35;;;7.15;;
47089;SDS011;32840;52.516;13.294;2023-05-07T07:07:08;8.90;;;7.47;;
47089;SDS011;32840;52.516;13.294;2023-05-07T07:09:53;10.60;;;7.28;;
47089;SDS011;32840;52.516;13.294;2023-05-07T07:12:38;11.68;;;7.40;;
47089;SDS011;32840;52.516;13.294;2023-05-07T07:15:23;9.80;;;7.43;;
47089;SDS011;32840;52.516;13.294;2023-05-07T07:18:09;10.38;;;7.10;;
47089;SDS011;32840;52.516;13.294;2023-05-07T07:20:53;10.48;;;7.45;;
47089;SDS011;32840;52.516;13.294;2023-05-07T07:23:38;10.52;;;6.78;;
47089;SDS011;32840;52.516;13.294;2023-05-07T07:26:23;9.07;;;6.90;;
47089;SDS011;32840;52.516;13.294;2023-05-07T07:29:08;12.88;;;6.68;;
47089;SDS011;32840;52.516;13.294;2023-05-07T07:31:53;9.25;;;5.85;;
47089;SDS011;32840;52.516;13.294;2023-05-07T07:34:39;6.72;;;5.65;;
47089;SDS011;32840;52.516;13.294;2023-05-07T07:37:24;7.68;;;5.72;;
47089;SDS011;32840;52.516;13.294;2023-05-07T07:40:09;10.02;;;5.95;;
47089;SDS011;32840;52.516;13.294;2023-05-07T07:42:56;7.80;;;5.55;;
47089;SDS011;32840;52.516;13.294;2023-05-07T07:45:41;7.07;;;5.22;;
47089;SDS011;32840;52.516;13.294;2023-05-07T07:48:26;9.00;;;5.70;;
47089;SDS011;32840;52.516;13.294;2023-05-07T07:51:11;8.07;;;5.43;;
47089;SDS011;32840;52.516;13.294;2023-05-07T07:53:56;7.03;;;4.68;;
47089;SDS011;32840;52.516;13.294;2023-05-07T07:56:41;7.85;;;4.55;;
47089;SDS011;32840;52.516;13.294;2023-05-07T07:59:26;8.75;;;4.80;;
47089;SDS011;32840;52.516;13.294;2023-05-07T08:02:11;6.00;;;4.43;;
47089;SDS011;32840;52.516;13.294;2023-05-07T08:04:56;5.45;;;4.50;;
47089;SDS011;32840;52.516;13.294;2023-05-07T08:07:41;5.55;;;4.05;;
47089;SDS011;32840;52.516;13.294;2023-05-07T08:10:26;6.50;;;3.92;;
47089;SDS011;32840;52.516;13.294;2023-05-07T08:13:11;6.20;;;4.20;;
47089;SDS011;32840;52.516;13.294;2023-05-07T08:15:56;6.75;;;3.80;;
47089;SDS011;32840;52.516;13.294;2023-05-07T08:18:41;6.25;;;3.80;;
47089;SDS011;32840;52.516;13.294;2023-05-07T08:21:26;5.85;;;4.18;;
47089;SDS011;32840;52.516;13.294;2023-05-07T08:24:11;9.02;;;4.13;;
47089;SDS011;32840;52.516;13.294;2023-05-07T08:26:55;4.93;;;3.78;;
47089;SDS011;32840;52.516;13.294;2023-05-07T08:29:40;6.13;;;3.55;;
47089;SDS011;32840;52.516;13.294;2023-05-07T08:32:25;9.95;;;3.22;;
47089;SDS011;32840;52.516;13.294;2023-05-07T08:35:10;4.03;;;3.10;;
47089;SDS011;32840;52.516;13.294;2023-05-07T08:37:55;5.00;;;3.60;;
47089;SDS011;32840;52.516;13.294;2023-05-07T08:40:40;4.70;;;3.25;;
47089;SDS011;32840;52.516;13.294;2023-05-07T08:43:26;7.10;;;3.40;;
47089;SDS011;32840;52.516;13.294;2023-05-07T08:46:11;7.15;;;3.85;;
47089;SDS011;32840;52.516;13.294;2023-05-07T08:49:01;4.85;;;3.22;;
47089;SDS011;32840;52.516;13.294;2023-05-07T08:51:46;9.13;;;3.40;;
47089;SDS011;32840;52.516;13.294;2023-05-07T08:54:31;4.25;;;3.38;;
47089;SDS011;32840;52.516;13.294;2023-05-07T08:57:16;5.07;;;4.22;;
47089;SDS011;32840;52.516;13.294;2023-05-07T09:00:02;4.40;;;3.35;;
47089;SDS011;32840;52.516;13.294;2023-05-07T09:02:48;5.40;;;3.28;;
47089;SDS011;32840;52.516;13.294;2023-05-07T09:05:33;4.95;;;3.45;;
47089;SDS011;32840;52.516;13.294;2023-05-07T09:08:18;5.35;;;3.58;;
47089;SDS011;32840;52.516;13.294;2023-05-07T09:11:03;6.00;;;3.80;;
47089;SDS011;32840;52.516;13.294;2023-05-07T09:13:48;9.77;;;6.93;;
47089;SDS011;32840;52.516;13.294;2023-05-07T09:16:34;5.70;;;3.75;;
47089;SDS011;32840;52.516;13.294;2023-05-07T09:19:22;5.47;;;3.05;;
47089;SDS011;32840;52.516;13.294;2023-05-07T09:22:08;5.57;;;3.40;;
47089;SDS011;32840;52.516;13.294;2023-05-07T09:24:55;4.78;;;3.58;;
47089;SDS011;32840;52.516;13.294;2023-05-07T09:27:41;4.57;;;3.47;;
47089;SDS011;32840;52.516;13.294;2023-05-07T09:30:29;4.97;;;3.17;;
47089;SDS011;32840;52.516;13.294;2023-05-07T09:33:15;3.63;;;3.10;;
47089;SDS011;32840;52.516;13.294;2023-05-07T09:36:05;6.00;;;3.00;;
47089;SDS011;32840;52.516;13.294;2023-05-07T09:38:51;5.90;;;3.17;;
47089;SDS011;32840;52.516;13.294;2023-05-07T09:41:42;5.20;;;3.33;;
47089;SDS011;32840;52.516;13.294;2023-05-07T09:44:28;5.28;;;3.28;;
47089;SDS011;32840;52.516;13.294;2023-05-07T09:47:14;6.13;;;3.38;;
47089;SDS011;32840;52.516;13.294;2023-05-07T09:50:03;6.78;;;3.58;;
47089;SDS011;32840;52.516;13.294;2023-05-07T09:52:52;4.45;;;3.58;;
47089;SDS011;32840;52.516;13.294;2023-05-07T09:55:38;5.80;;;3.63;;
47089;SDS011;32840;52.516;13.294;2023-05-07T09:58:23;5.35;;;3.38;;
47089;SDS011;32840;52.516;13.294;2023-05-07T10:01:10;4.68;;;3.25;;
47089;SDS011;32840;52.516;13.294;2023-05-07T10:03:56;8.98;;;3.50;;
47089;SDS011;32840;52.516;13.294;2023-05-07T10:06:42;5.95;;;3.38;;
47089;SDS011;32840;52.516;13.294;2023-05-07T10:09:27;5.60;;;3.47;;
47089;SDS011;32840;52.516;13.294;2023-05-07T10:12:13;4.30;;;2.63;;
47089;SDS011;32840;52.516;13.294;2023-05-07T10:14:58;5.82;;;3.10;;
47089;SDS011;32840;52.516;13.294;2023-05-07T10:17:43;4.30;;;3.05;;
47089;SDS011;32840;52.516;13.294;2023-05-07T10:20:29;6.53;;;3.17;;
47089;SDS011;32840;52.516;13.294;2023-05-07T10:23:16;3.88;;;2.97;;
47089;SDS011;32840;52.516;13.294;2023-05-07T10:26:06;4.97;;;2.67;;
47089;SDS011;32840;52.516;13.294;2023-05-07T10:28:54;5.00;;;2.55;;
47089;SDS011;32840;52.516;13.294;2023-05-07T10:34:40;4.47;;;2.67;;
47089;SDS011;32840;52.516;13.294;2023-05-07T10:37:28;6.05;;;3.53;;
47089;SDS011;32840;52.516;13.294;2023-05-07T10:40:14;5.90;;;2.55;;
47089;SDS011;32840;52.516;13.294;2023-05-07T10:43:00;3.63;;;1.75;;
47089;SDS011;32840;52.516;13.294;2023-05-07T10:52:10;4.50;;;1.88;;
47089;SDS011;32840;52.516;13.294;2023-05-07T10:58:22;4.28;;;2.00;;
47089;SDS011;32840;52.516;13.294;2023-05-07T11:01:09;3.20;;;2.10;;
47089;SDS011;32840;52.516;13.294;2023-05-07T11:04:12;4.38;;;2.30;;
47089;SDS011;32840;52.516;13.294;2023-05-07T11:15:36;9.60;;;2.03;;
47089;SDS011;32840;52.516;13.294;2023-05-07T11:18:27;2.80;;;1.48;;
47089;SDS011;32840;52.516;13.294;2023-05-07T11:21:37;4.20;;;2.05;;
47089;SDS011;32840;52.516;13.294;2023-05-07T11:24:24;3.42;;;2.00;;
47089;SDS011;32840;52.516;13.294;2023-05-07T11:27:09;4.63;;;1.90;;
47089;SDS011;32840;52.516;13.294;2023-05-07T11:29:55;5.07;;;2.20;;
47089;SDS011;32840;52.516;13.294;2023-05-07T11:32:40;5.22;;;1.90;;
47089;SDS011;32840;52.516;13.294;2023-05-07T11:35:25;4.40;;;2.10;;
47089;SDS011;32840;52.516;13.294;2023-05-07T11:38:11;3.97;;;1.80;;
47089;SDS011;32840;52.516;13.294;2023-05-07T11:40:57;2.58;;;1.77;;
47089;SDS011;32840;52.516;13.294;2023-05-07T11:43:54;3.80;;;2.22;;
47089;SDS011;32840;52.516;13.294;2023-05-07T11:46:43;4.03;;;2.05;;
47089;SDS011;32840;52.516;13.294;2023-05-07T11:49:29;3.30;;;2.08;;
47089;SDS011;32840;52.516;13.294;2023-05-07T11:52:14;4.22;;;2.42;;
47089;SDS011;32840;52.516;13.294;2023-05-07T11:55:00;5.15;;;3.95;;
47089;SDS011;32840;52.516;13.294;2023-05-07T11:57:47;4.22;;;2.22;;
47089;SDS011;32840;52.516;13.294;2023-05-07T12:00:32;5.05;;;2.17;;
47089;SDS011;32840;52.516;13.294;2023-05-07T12:03:17;2.58;;;2.00;;
47089;SDS011;32840;52.516;13.294;2023-05-07T12:06:02;2.78;;;2.20;;
47089;SDS011;32840;52.516;13.294;2023-05-07T12:08:49;3.72;;;1.83;;
47089;SDS011;32840;52.516;13.294;2023-05-07T12:11:34;5.70;;;2.17;;
47089;SDS011;32840;52.516;13.294;2023-05-07T12:14:19;6.03;;;2.30;;
47089;SDS011;32840;52.516;13.294;2023-05-07T12:17:04;3.45;;;1.80;;
47089;SDS011;32840;52.516;13.294;2023-05-07T12:19:50;3.20;;;1.92;;
47089;SDS011;32840;52.516;13.294;2023-05-07T12:22:35;3.33;;;1.80;;
47089;SDS011;32840;52.516;13.294;2023-05-07T12:25:20;5.05;;;2.03;;
47089;SDS011;32840;52.516;13.294;2023-05-07T12:28:07;3.28;;;2.03;;
47089;SDS011;32840;52.516;13.294;2023-05-07T12:30:52;3.70;;;2.03;;
47089;SDS011;32840;52.516;13.294;2023-05-07T12:33:37;4.75;;;2.05;;
47089;SDS011;32840;52.516;13.294;2023-05-07T12:36:24;4.75;;;2.00;;
47089;SDS011;32840;52.516;13.294;2023-05-07T12:39:10;2.58;;;1.63;;
47089;SDS011;32840;52.516;13.294;2023-05-07T12:41:55;2.80;;;1.60;;
47089;SDS011;32840;52.516;13.294;2023-05-07T12:44:43;3.33;;;2.10;;
47089;SDS011;32840;52.516;13.294;2023-05-07T12:47:30;4.22;;;1.60;;
47089;SDS011;32840;52.516;13.294;2023-05-07T12:50:16;3.08;;;1.73;;
47089;SDS011;32840;52.516;13.294;2023-05-07T12:53:03;3.53;;;1.95;;
47089;SDS011;32840;52.516;13.294;2023-05-07T12:55:51;4.07;;;2.00;;
47089;SDS011;32840;52.516;13.294;2023-05-07T12:58:37;2.92;;;1.70;;
47089;SDS011;32840;52.516;13.294;2023-05-07T13:01:22;4.53;;;1.50;;
47089;SDS011;32840;52.516;13.294;2023-05-07T13:04:12;3.25;;;1.55;;
47089;SDS011;32840;52.516;13.294;2023-05-07T13:06:57;2.65;;;1.83;;
47089;SDS011;32840;52.516;13.294;2023-05-07T13:09:42;4.72;;;1.65;;
47089;SDS011;32840;52.516;13.294;2023-05-07T13:12:27;2.22;;;1.50;;
47089;SDS011;32840;52.516;13.294;2023-05-07T13:15:12;3.38;;;1.70;;
47089;SDS011;32840;52.516;13.294;2023-05-07T13:17:57;2.83;;;1.90;;
47089;SDS011;32840;52.516;13.294;2023-05-07T13:20:42;2.83;;;1.70;;
47089;SDS011;32840;52.516;13.294;2023-05-07T13:23:27;4.30;;;2.50;;
47089;SDS011;32840;52.516;13.294;2023-05-07T13:26:12;2.28;;;1.50;;
47089;SDS011;32840;52.516;13.294;2023-05-07T13:28:57;3.10;;;1.83;;
47089;SDS011;32840;52.516;13.294;2023-05-07T13:31:42;3.80;;;1.75;;
47089;SDS011;32840;52.516;13.294;2023-05-07T13:34:28;5.53;;;1.65;;
47089;SDS011;32840;52.516;13.294;2023-05-07T13:37:13;3.50;;;1.60;;
47089;SDS011;32840;52.516;13.294;2023-05-07T13:39:57;4.05;;;1.90;;
47089;SDS011;32840;52.516;13.294;2023-05-07T13:42:42;3.65;;;1.77;;
47089;SDS011;32840;52.516;13.294;2023-05-07T13:45:28;2.80;;;1.83;;
47089;SDS011;32840;52.516;13.294;2023-05-07T13:48:13;3.17;;;1.63;;
47089;SDS011;32840;52.516;13.294;2023-05-07T13:50:58;4.22;;;1.60;;
47089;SDS011;32840;52.516;13.294;2023-05-07T13:53:44;2.35;;;1.42;;
47089;SDS011;32840;52.516;13.294;2023-05-07T13:56:29;3.42;;;1.60;;
47089;SDS011;32840;52.516;13.294;2023-05-07T13:59:15;6.93;;;1.92;;
47089;SDS011;32840;52.516;13.294;2023-05-07T14:02:00;2.65;;;1.40;;
47089;SDS011;32840;52.516;13.294;2023-05-07T14:04:45;4.60;;;1.58;;
47089;SDS011;32840;52.516;13.294;2023-05-07T14:07:29;2.20;;;1.63;;
47089;SDS011;32840;52.516;13.294;2023-05-07T14:10:14;3.13;;;1.92;;
47089;SDS011;32840;52.516;13.294;2023-05-07T14:12:59;3.25;;;1.58;;
47089;SDS011;32840;52.516;13.294;2023-05-07T14:15:44;2.22;;;1.40;;
47089;SDS011;32840;52.516;13.294;2023-05-07T14:18:30;3.33;;;2.33;;
47089;SDS011;32840;52.516;13.294;2023-05-07T14:21:15;4.00;;;1.60;;
47089;SDS011;32840;52.516;13.294;2023-05-07T14:24:00;3.70;;;1.50;;
47089;SDS011;32840;52.516;13.294;2023-05-07T14:26:45;3.08;;;1.55;;
47089;SDS011;32840;52.516;13.294;2023-05-07T14:29:30;3.70;;;2.20;;
47089;SDS011;32840;52.516;13.294;2023-05-07T14:32:15;3.40;;;1.92;;
47089;SDS011;32840;52.516;13.294;2023-05-07T14:35:00;3.53;;;1.90;;
47089;SDS011;32840;52.516;13.294;2023-05-07T14:37:44;3.15;;;1.60;;
47089;SDS011;32840;52.516;13.294;2023-05-07T14:40:29;2.83;;;2.00;;
47089;SDS011;32840;52.516;13.294;2023-05-07T14:43:14;5.18;;;2.00;;
47089;SDS011;32840;52.516;13.294;2023-05-07T14:45:59;5.85;;;3.38;;
47089;SDS011;32840;52.516;13.294;2023-05-07T14:48:44;3.05;;;1.58;;
47089;SDS011;32840;52.516;13.294;2023-05-07T14:51:30;4.65;;;1.85;;
47089;SDS011;32840;52.516;13.294;2023-05-07T14:54:15;4.60;;;1.73;;
47089;SDS011;32840;52.516;13.294;2023-05-07T14:57:00;3.35;;;2.20;;
47089;SDS011;32840;52.516;13.294;2023-05-07T14:59:45;5.65;;;2.00;;
47089;SDS011;32840;52.516;13.294;2023-05-07T15:02:30;4.10;;;1.70;;
47089;SDS011;32840;52.516;13.294;2023-05-07T15:05:15;2.88;;;1.70;;
47089;SDS011;32840;52.516;13.294;2023-05-07T15:08:02;2.95;;;1.23;;
47089;SDS011;32840;52.516;13.294;2023-05-07T15:10:47;4.28;;;2.17;;
47089;SDS011;32840;52.516;13.294;2023-05-07T15:13:32;3.30;;;1.77;;
47089;SDS011;32840;52.516;13.294;2023-05-07T15:16:17;5.60;;;1.48;;
47089;SDS011;32840;52.516;13.294;2023-05-07T15:19:03;4.40;;;1.75;;
47089;SDS011;32840;52.516;13.294;2023-05-07T15:21:47;1.67;;;1.40;;
47089;SDS011;32840;52.516;13.294;2023-05-07T15:24:32;2.70;;;1.80;;
47089;SDS011;32840;52.516;13.294;2023-05-07T15:27:17;5.20;;;1.70;;
47089;SDS011;32840;52.516;13.294;2023-05-07T15:30:02;2.08;;;1.50;;
47089;SDS011;32840;52.516;13.294;2023-05-07T15:32:48;2.22;;;1.50;;
47089;SDS011;32840;52.516;13.294;2023-05-07T15:35:33;2.67;;;1.55;;
47089;SDS011;32840;52.516;13.294;2023-05-07T15:38:18;2.85;;;1.40;;
47089;SDS011;32840;52.516;13.294;2023-05-07T15:41:02;4.18;;;1.60;;
47089;SDS011;32840;52.516;13.294;2023-05-07T15:43:48;3.03;;;1.30;;
47089;SDS011;32840;52.516;13.294;2023-05-07T15:46:35;2.28;;;1.33;;
47089;SDS011;32840;52.516;13.294;2023-05-07T15:49:20;4.28;;;1.80;;
47089;SDS011;32840;52.516;13.294;2023-05-07T15:52:06;3.28;;;1.35;;
47089;SDS011;32840;52.516;13.294;2023-05-07T15:54:51;3.17;;;1.50;;
47089;SDS011;32840;52.516;13.294;2023-05-07T15:57:36;4.88;;;1.70;;
47089;SDS011;32840;52.516;13.294;2023-05-07T16:00:21;4.10;;;1.55;;
47089;SDS011;32840;52.516;13.294;2023-05-07T16:03:06;2.50;;;1.58;;
47089;SDS011;32840;52.516;13.294;2023-05-07T16:05:51;3.65;;;1.42;;
47089;SDS011;32840;52.516;13.294;2023-05-07T16:08:37;3.95;;;1.25;;
47089;SDS011;32840;52.516;13.294;2023-05-07T16:11:23;3.83;;;1.58;;
47089;SDS011;32840;52.516;13.294;2023-05-07T16:14:09;3.72;;;1.50;;
47089;SDS011;32840;52.516;13.294;2023-05-07T16:16:54;3.67;;;1.70;;
47089;SDS011;32840;52.516;13.294;2023-05-07T16:19:38;2.70;;;1.67;;
47089;SDS011;32840;52.516;13.294;2023-05-07T16:22:24;3.15;;;1.50;;
47089;SDS011;32840;52.516;13.294;2023-05-07T16:25:09;2.85;;;1.50;;
47089;SDS011;32840;52.516;13.294;2023-05-07T16:27:54;3.40;;;1.80;;
47089;SDS011;32840;52.516;13.294;2023-05-07T16:30:39;2.97;;;1.50;;
47089;SDS011;32840;52.516;13.294;2023-05-07T16:33:24;6.13;;;2.00;;